Alamosa, CO

9:38 AM MST on January 26, 2015 (GMT -0700)
San Luis Valley Regional / Bergman Field | Change Station
CLOSE
Current Station
Airport
Location: Alamosa,
Elevation: 7543 ft
Nearby Weather Stations

Elev 7543 ft 37.44 °N, 105.86 °W | Updated 46 minutes ago

Clear
Clear
23 °F
Feels Like 23 °F
N
0
Wind Variable Wind from North

Today
High -- | Low -- °F
--% Chance of Precip.
Yesterday
High -- | Low -- °F
Precip. -- in
7:11 AM 5:20 PM
Waxing Crescent, 44% visible
Pressure 30.59 in
Visibility 10.0 miles
Clouds Clear
Dew Point 14 °F
Humidity 68%
Rainfall 0.00 in
Snow Depth Not available.
UV 1 out of 12
Pollen 1.80 out of 12
Air Quality Not available.
Flu Activity Not available.
METAR KALS 261552Z AUTO 00000KT 10SM CLR M05/M10 A3047 RMK AO2 SLP358 T10501100

More Conditions Fewer Conditions

Pressure 30.59 in
Visibility 10.0 miles
Clouds Clear
Dew Point 14 °F
Humidity 68%
Rainfall 0.00 in
Snow Depth Not available.
UV 1 out of 12
Pollen 1.80 out of 12
Air Quality Not available.
Flu Activity Not available.
METAR KALS 261552Z AUTO 00000KT 10SM CLR M05/M10 A3047 RMK AO2 SLP358 T10501100

More Conditions Fewer Conditions

10-Day Weather Forecast

Almanac

Astronomy

Jan. 26, 2015 Rise Set
Actual Time
Civil Twilight
Nautical Twilight
Astronomical Twilight
Moon
Length of Visible Light
Length of Day
Tomorrow will be .
, % of the Moon is Illuminated

Today's Extremes

State Highs State Lows

Community

WunderPhotos

Upload Photos

1,790,272 photos uploaded!

WunderBlogs® & News

Nearby

Air Quality

  Air Quality AQ Index Pollutant
Not available.

Snow Depth

Station Depth Elevation

Earthquake Activity

City Distance Mag. Time & Date
Minimum magnitude displayed is 2.5.

Coastal Water Temperatures

Place Temperature

Nearby Weather Stations